EGCN/DSA METAR and TAF weather

Enter ICAO airport designator
Station Type Date Time Source
EGCN METAR 2020/09/23 00:50 UTC NOAA

EGCN 230050Z 21008KT CAVOK 16/13 Q1002


Station Type Date Time Source
EGCN Decoded METAR 2020/09/23 00:50 UTC NOAA

Station name not available
Sep 22, 2020 - 08:50 PM EDT / 2020.09.23 0050 UTC
Wind: from the SSW (210 degrees) at 9 MPH (8 KT):0
Visibility: greater than 7 mile(s):0
Temperature: 60 F (16 C)
Dew Point: 55 F (13 C)
Relative Humidity: 82%
Pressure (altimeter): 29.59 in. Hg (1002 hPa)
ob: EGCN 230050Z 21008KT CAVOK 16/13 Q1002
cycle: 1

Station Type Date Time Source
EGCN TAF 2020/09/22 18:00 UTC NOAA

TAF EGCN 221656Z 2218/2318 23010KT 9999 SCT030 PROB30
TEMPO 2221/2303 6000 SHRA BKN012
TEMPO 2303/2318 6000 RA BKN007 PROB40
TEMPO 2304/2312 3000 RADZ
BECMG 2306/2309 35008KT

Example: see airport list